createdAt,value
2023-05-24T09:45:47.539Z,95467.09
2023-05-24T09:48:15.356Z,95463.22
2023-05-24T09:50:42.725Z,95466.56
2023-05-24T09:53:09.604Z,95468.97
2023-05-24T09:55:37.319Z,95471.91
2023-05-24T09:58:06.212Z,95471.06
2023-05-24T10:00:41.367Z,95482.31
2023-05-24T10:03:11.596Z,95479.88
2023-05-24T10:05:42.713Z,95482.00
2023-05-24T10:08:10.097Z,95480.81
2023-05-24T10:10:36.952Z,95481.00
2023-05-24T10:13:03.920Z,95488.75
2023-05-24T10:15:30.916Z,95489.94
2023-05-24T10:17:59.009Z,95486.94
2023-05-24T10:20:26.764Z,95492.94
2023-05-24T10:22:59.365Z,95493.09
2023-05-24T10:25:28.479Z,95502.00
2023-05-24T10:28:01.447Z,95497.50
2023-05-24T10:31:12.224Z,95491.34
2023-05-24T10:33:40.771Z,95488.75
2023-05-24T10:36:15.499Z,95491.16
2023-05-24T10:38:48.238Z,95495.69
2023-05-24T10:41:15.503Z,95493.44
2023-05-24T10:43:56.777Z,95491.91
2023-05-24T10:46:33.544Z,95493.91
2023-05-24T10:49:01.790Z,95496.34
2023-05-24T10:51:40.766Z,95487.19
2023-05-24T10:54:11.598Z,95488.34
2023-05-24T10:56:43.968Z,95489.53
2023-05-24T10:59:22.926Z,95492.63
2023-05-24T11:02:00.753Z,95491.19
2023-05-24T11:04:31.947Z,95488.16
2023-05-24T11:07:09.468Z,95492.53
2023-05-24T11:09:37.728Z,95496.97
2023-05-24T11:12:08.209Z,95487.81
2023-05-24T11:14:39.593Z,95496.81
2023-05-24T11:17:07.807Z,95491.91
2023-05-24T11:19:38.056Z,95495.03
2023-05-24T11:22:07.572Z,95485.28
2023-05-24T11:24:35.022Z,95493.50
2023-05-24T11:27:06.085Z,95482.25
2023-05-24T11:29:34.355Z,95485.16
2023-05-24T11:32:04.542Z,95480.34
2023-05-24T11:34:32.235Z,95481.50
2023-05-24T11:37:00.222Z,95477.13
2023-05-24T11:39:35.341Z,95481.56
2023-05-24T11:42:05.228Z,95478.81
2023-05-24T11:44:32.776Z,95483.53
2023-05-24T11:47:03.429Z,95486.91
2023-05-24T11:49:30.032Z,95480.16
2023-05-24T11:51:58.661Z,95484.66
2023-05-24T11:54:28.878Z,95485.88
2023-05-24T11:56:55.653Z,95482.19
2023-05-24T11:59:31.680Z,95478.81
2023-05-24T12:02:02.833Z,95479.31
2023-05-24T12:04:30.520Z,95485.16
2023-05-24T12:06:57.803Z,95490.97
2023-05-24T12:09:25.330Z,95492.34
2023-05-24T12:11:52.812Z,95489.03
2023-05-24T12:14:23.426Z,95486.16
2023-05-24T12:16:50.084Z,95488.41
2023-05-24T12:19:32.474Z,95491.03
2023-05-24T12:22:00.793Z,95492.09
2023-05-24T12:24:28.040Z,95492.28
2023-05-24T12:27:01.639Z,95494.53
2023-05-24T12:29:33.064Z,95489.25
2023-05-24T12:31:59.915Z,95498.44
2023-05-24T12:34:26.556Z,95493.50
2023-05-24T12:36:53.669Z,95496.56
2023-05-24T12:39:37.652Z,95493.44
2023-05-24T12:42:04.925Z,95490.00
2023-05-24T12:44:33.948Z,95488.72
2023-05-24T12:47:02.599Z,95489.81
2023-05-24T12:49:29.768Z,95489.06
2023-05-24T12:51:57.166Z,95482.56
2023-05-24T12:54:25.910Z,95486.66
2023-05-24T12:56:56.544Z,95485.84
2023-05-24T12:59:24.130Z,95471.59
2023-05-24T13:01:51.893Z,95475.47
2023-05-24T13:04:21.692Z,95477.53
2023-05-24T13:06:49.317Z,95473.63
2023-05-24T13:09:19.286Z,95477.13
2023-05-24T13:11:46.495Z,95477.13
2023-05-24T13:14:13.350Z,95474.84
2023-05-24T13:16:39.989Z,95471.63
2023-05-24T13:19:06.639Z,95475.31
2023-05-24T13:21:33.622Z,95476.94
2023-05-24T13:24:00.585Z,95475.28
2023-05-24T13:26:27.568Z,95485.69
2023-05-24T13:29:26.608Z,95481.22
2023-05-24T13:31:41.875Z,95481.81
2023-05-24T13:34:15.709Z,95476.28
2023-05-24T13:36:43.099Z,95479.38
2023-05-24T13:39:15.786Z,95477.13
2023-05-24T13:41:44.553Z,95476.91
2023-05-24T13:44:15.601Z,95475.69
2023-05-24T13:46:42.981Z,95476.94
2023-05-24T13:49:10.840Z,95476.31
2023-05-24T13:51:38.102Z,95486.94
2023-05-24T13:54:07.086Z,95490.63
2023-05-24T13:56:34.318Z,95495.94
2023-05-24T13:59:02.673Z,95490.00
2023-05-24T14:01:31.343Z,95486.06
2023-05-24T14:03:58.452Z,95483.41
2023-05-24T14:06:25.403Z,95474.81
2023-05-24T14:08:52.279Z,95478.06
2023-05-24T14:11:19.619Z,95481.50
2023-05-24T14:16:16.503Z,95482.16
2023-05-24T14:18:43.676Z,95484.22
2023-05-24T14:21:10.594Z,95484.41
2023-05-24T14:23:37.678Z,95485.81
2023-05-24T14:26:04.267Z,95480.50
2023-05-24T14:28:30.920Z,95473.78
2023-05-24T14:30:57.486Z,95475.88
2023-05-24T14:33:24.063Z,95480.56
2023-05-24T14:35:51.671Z,95471.09
2023-05-24T14:38:18.657Z,95473.56
2023-05-24T14:40:47.586Z,95466.19
2023-05-24T14:43:14.462Z,95477.47
2023-05-24T14:45:42.044Z,95472.94
2023-05-24T14:48:13.273Z,95465.94
2023-05-24T14:50:41.143Z,95474.28
2023-05-24T14:53:11.664Z,95473.00
2023-05-24T14:55:39.030Z,95464.19
2023-05-24T14:58:09.122Z,95465.44
2023-05-24T15:00:36.840Z,95466.00
2023-05-24T15:03:05.924Z,95463.50
2023-05-24T15:05:33.096Z,95471.22
2023-05-24T15:07:59.757Z,95472.22
2023-05-24T15:10:26.645Z,95460.31
2023-05-24T15:12:53.218Z,95457.63
2023-05-24T15:15:22.691Z,95458.81
2023-05-24T15:17:49.526Z,95459.59
2023-05-24T15:20:16.505Z,95462.25
2023-05-24T15:22:43.665Z,95457.34
2023-05-24T15:25:11.250Z,95453.66
2023-05-24T15:27:38.063Z,95452.84
2023-05-24T15:30:05.320Z,95457.31
2023-05-24T15:32:31.914Z,95456.44
2023-05-24T15:35:00.354Z,95453.50
2023-05-24T15:37:27.153Z,95452.84
2023-05-24T15:39:54.058Z,95453.34
2023-05-24T15:42:21.510Z,95440.03
2023-05-24T15:44:48.104Z,95439.41
2023-05-24T15:47:14.738Z,95430.41
2023-05-24T15:49:41.344Z,95430.41
2023-05-24T15:52:08.220Z,95438.50
2023-05-24T15:54:34.969Z,95429.28
2023-05-24T15:57:02.345Z,95426.41
2023-05-24T15:59:29.063Z,95429.53
2023-05-24T16:01:56.482Z,95427.91
2023-05-24T16:04:23.156Z,95435.31
2023-05-24T16:06:49.802Z,95432.56
2023-05-24T16:09:16.488Z,95427.56
2023-05-24T16:11:43.095Z,95419.69
2023-05-24T16:14:10.315Z,95426.88
2023-05-24T16:16:37.817Z,95426.63
2023-05-24T16:19:04.673Z,95421.81
2023-05-24T16:21:32.639Z,95419.38
2023-05-24T16:24:01.610Z,95418.44
2023-05-24T16:26:30.668Z,95412.28
2023-05-24T16:28:57.683Z,95414.16
2023-05-24T16:31:24.547Z,95410.72
2023-05-24T16:33:51.403Z,95413.00
2023-05-24T16:36:17.997Z,95405.22
